sensor_id;sensor_type;location;lat;lon;timestamp;temperature;humidity
7516;DHT22;3799;47.184;8.538;2023-03-01T00:01:38;2.00;99.90
7516;DHT22;3799;47.184;8.538;2023-03-01T00:04:05;1.90;99.90
7516;DHT22;3799;47.184;8.538;2023-03-01T00:06:33;1.80;99.90
7516;DHT22;3799;47.184;8.538;2023-03-01T00:09:03;1.80;99.90
7516;DHT22;3799;47.184;8.538;2023-03-01T00:11:32;2.00;99.90
7516;DHT22;3799;47.184;8.538;2023-03-01T00:14:01;2.00;99.90
7516;DHT22;3799;47.184;8.538;2023-03-01T00:16:31;1.90;99.90
7516;DHT22;3799;47.184;8.538;2023-03-01T00:19:02;1.90;99.90
7516;DHT22;3799;47.184;8.538;2023-03-01T00:21:30;1.80;99.90
7516;DHT22;3799;47.184;8.538;2023-03-01T00:23:58;2.10;99.90
7516;DHT22;3799;47.184;8.538;2023-03-01T00:26:26;1.90;99.90
7516;DHT22;3799;47.184;8.538;2023-03-01T00:28:54;1.90;99.90
7516;DHT22;3799;47.184;8.538;2023-03-01T00:31:24;1.80;99.90
7516;DHT22;3799;47.184;8.538;2023-03-01T00:33:56;2.00;99.90
7516;DHT22;3799;47.184;8.538;2023-03-01T00:36:26;1.90;99.90
7516;DHT22;3799;47.184;8.538;2023-03-01T00:38:54;2.00;99.90
7516;DHT22;3799;47.184;8.538;2023-03-01T00:41:22;1.80;99.90
7516;DHT22;3799;47.184;8.538;2023-03-01T00:43:50;2.30;99.90
7516;DHT22;3799;47.184;8.538;2023-03-01T00:46:22;1.90;99.90
7516;DHT22;3799;47.184;8.538;2023-03-01T00:48:49;2.10;99.90
7516;DHT22;3799;47.184;8.538;2023-03-01T00:51:22;2.10;99.90
7516;DHT22;3799;47.184;8.538;2023-03-01T00:53:52;2.20;99.90
7516;DHT22;3799;47.184;8.538;2023-03-01T00:56:20;2.00;99.90
7516;DHT22;3799;47.184;8.538;2023-03-01T00:58:47;1.90;99.90
7516;DHT22;3799;47.184;8.538;2023-03-01T01:01:22;1.80;99.90
7516;DHT22;3799;47.184;8.538;2023-03-01T01:03:54;2.00;99.90
7516;DHT22;3799;47.184;8.538;2023-03-01T01:06:34;2.00;99.90
7516;DHT22;3799;47.184;8.538;2023-03-01T01:09:04;1.90;99.90
7516;DHT22;3799;47.184;8.538;2023-03-01T01:11:33;1.70;99.90
7516;DHT22;3799;47.184;8.538;2023-03-01T01:14:02;2.00;99.90
7516;DHT22;3799;47.184;8.538;2023-03-01T01:16:29;1.90;99.90
7516;DHT22;3799;47.184;8.538;2023-03-01T01:18:57;1.90;99.90
7516;DHT22;3799;47.184;8.538;2023-03-01T01:21:25;2.00;99.90
7516;DHT22;3799;47.184;8.538;2023-03-01T01:23:54;2.00;99.90
7516;DHT22;3799;47.184;8.538;2023-03-01T01:26:24;1.80;99.90
7516;DHT22;3799;47.184;8.538;2023-03-01T01:28:52;1.80;99.90
7516;DHT22;3799;47.184;8.538;2023-03-01T01:31:20;1.80;99.90
7516;DHT22;3799;47.184;8.538;2023-03-01T01:33:55;2.00;99.90
7516;DHT22;3799;47.184;8.538;2023-03-01T01:36:23;1.90;99.90
7516;DHT22;3799;47.184;8.538;2023-03-01T01:38:50;2.00;99.90
7516;DHT22;3799;47.184;8.538;2023-03-01T01:41:19;1.80;99.90
7516;DHT22;3799;47.184;8.538;2023-03-01T01:43:49;2.10;99.90
7516;DHT22;3799;47.184;8.538;2023-03-01T01:46:32;1.80;99.90
7516;DHT22;3799;47.184;8.538;2023-03-01T01:49:17;1.80;99.90
7516;DHT22;3799;47.184;8.538;2023-03-01T01:51:49;2.00;99.90
7516;DHT22;3799;47.184;8.538;2023-03-01T01:54:24;1.90;99.90
7516;DHT22;3799;47.184;8.538;2023-03-01T01:56:55;1.90;99.90
7516;DHT22;3799;47.184;8.538;2023-03-01T01:59:24;1.80;99.90
7516;DHT22;3799;47.184;8.538;2023-03-01T02:01:52;1.80;99.90
7516;DHT22;3799;47.184;8.538;2023-03-01T02:04:20;2.00;99.90
7516;DHT22;3799;47.184;8.538;2023-03-01T02:06:54;2.00;99.90
7516;DHT22;3799;47.184;8.538;2023-03-01T02:09:24;1.90;99.90
7516;DHT22;3799;47.184;8.538;2023-03-01T02:11:52;1.90;99.90
7516;DHT22;3799;47.184;8.538;2023-03-01T02:14:22;1.90;99.90
7516;DHT22;3799;47.184;8.538;2023-03-01T02:16:49;1.90;99.90
7516;DHT22;3799;47.184;8.538;2023-03-01T02:22:39;1.90;99.90
7516;DHT22;3799;47.184;8.538;2023-03-01T02:30:25;1.90;99.90
7516;DHT22;3799;47.184;8.538;2023-03-01T02:32:56;1.80;99.90
7516;DHT22;3799;47.184;8.538;2023-03-01T02:35:35;1.80;99.90
7516;DHT22;3799;47.184;8.538;2023-03-01T02:38:07;1.80;99.90
7516;DHT22;3799;47.184;8.538;2023-03-01T02:40:36;1.70;99.90
7516;DHT22;3799;47.184;8.538;2023-03-01T02:43:08;1.70;99.90
7516;DHT22;3799;47.184;8.538;2023-03-01T02:45:36;1.60;99.90
7516;DHT22;3799;47.184;8.538;2023-03-01T02:48:06;1.70;99.90
7516;DHT22;3799;47.184;8.538;2023-03-01T02:50:52;1.80;99.90
7516;DHT22;3799;47.184;8.538;2023-03-01T02:56:10;1.90;99.90
7516;DHT22;3799;47.184;8.538;2023-03-01T02:58:43;1.80;99.90
7516;DHT22;3799;47.184;8.538;2023-03-01T03:01:19;1.60;99.90
7516;DHT22;3799;47.184;8.538;2023-03-01T03:03:47;1.90;99.90
7516;DHT22;3799;47.184;8.538;2023-03-01T03:06:15;1.90;99.90
7516;DHT22;3799;47.184;8.538;2023-03-01T03:08:42;1.70;99.90
7516;DHT22;3799;47.184;8.538;2023-03-01T03:11:10;2.00;99.90
7516;DHT22;3799;47.184;8.538;2023-03-01T03:13:37;2.00;99.90
7516;DHT22;3799;47.184;8.538;2023-03-01T03:16:15;1.90;99.90
7516;DHT22;3799;47.184;8.538;2023-03-01T03:18:43;1.50;99.90
7516;DHT22;3799;47.184;8.538;2023-03-01T03:21:11;1.80;99.90
7516;DHT22;3799;47.184;8.538;2023-03-01T03:23:39;1.90;99.90
7516;DHT22;3799;47.184;8.538;2023-03-01T03:26:07;1.90;99.90
7516;DHT22;3799;47.184;8.538;2023-03-01T03:28:36;1.60;99.90
7516;DHT22;3799;47.184;8.538;2023-03-01T03:31:07;1.70;99.90
7516;DHT22;3799;47.184;8.538;2023-03-01T03:33:35;1.80;99.90
7516;DHT22;3799;47.184;8.538;2023-03-01T03:36:03;1.80;99.90
7516;DHT22;3799;47.184;8.538;2023-03-01T03:38:31;2.10;99.90
7516;DHT22;3799;47.184;8.538;2023-03-01T03:41:02;1.70;99.90
7516;DHT22;3799;47.184;8.538;2023-03-01T03:43:32;1.90;99.90
7516;DHT22;3799;47.184;8.538;2023-03-01T03:46:00;1.90;99.90
7516;DHT22;3799;47.184;8.538;2023-03-01T03:48:43;1.80;99.90
7516;DHT22;3799;47.184;8.538;2023-03-01T03:51:13;1.80;99.90
7516;DHT22;3799;47.184;8.538;2023-03-01T03:53:42;2.00;99.90
7516;DHT22;3799;47.184;8.538;2023-03-01T03:56:10;1.90;99.90
7516;DHT22;3799;47.184;8.538;2023-03-01T03:58:37;1.90;99.90
7516;DHT22;3799;47.184;8.538;2023-03-01T04:01:04;1.80;99.90
7516;DHT22;3799;47.184;8.538;2023-03-01T04:03:32;2.10;99.90
7516;DHT22;3799;47.184;8.538;2023-03-01T04:06:00;1.90;99.90
7516;DHT22;3799;47.184;8.538;2023-03-01T04:08:28;1.90;99.90
7516;DHT22;3799;47.184;8.538;2023-03-01T04:11:01;1.90;99.90
7516;DHT22;3799;47.184;8.538;2023-03-01T04:13:49;1.90;99.90
7516;DHT22;3799;47.184;8.538;2023-03-01T04:16:17;1.80;99.90
7516;DHT22;3799;47.184;8.538;2023-03-01T04:18:44;1.80;99.90
7516;DHT22;3799;47.184;8.538;2023-03-01T04:21:12;1.80;99.90
7516;DHT22;3799;47.184;8.538;2023-03-01T04:23:39;1.90;99.90
7516;DHT22;3799;47.184;8.538;2023-03-01T04:26:08;1.80;99.90
7516;DHT22;3799;47.184;8.538;2023-03-01T04:28:40;1.80;99.90
7516;DHT22;3799;47.184;8.538;2023-03-01T04:31:14;2.10;99.90
7516;DHT22;3799;47.184;8.538;2023-03-01T04:33:54;1.90;99.90
7516;DHT22;3799;47.184;8.538;2023-03-01T04:36:24;1.90;99.90
7516;DHT22;3799;47.184;8.538;2023-03-01T04:38:52;1.80;99.90
7516;DHT22;3799;47.184;8.538;2023-03-01T04:41:22;2.10;99.90
7516;DHT22;3799;47.184;8.538;2023-03-01T04:43:49;1.90;99.90
7516;DHT22;3799;47.184;8.538;2023-03-01T04:46:19;1.80;99.90
7516;DHT22;3799;47.184;8.538;2023-03-01T04:48:47;1.80;99.90
7516;DHT22;3799;47.184;8.538;2023-03-01T04:51:15;2.10;99.90
7516;DHT22;3799;47.184;8.538;2023-03-01T04:53:43;1.80;99.90
7516;DHT22;3799;47.184;8.538;2023-03-01T04:56:11;2.00;99.90
7516;DHT22;3799;47.184;8.538;2023-03-01T04:58:38;1.90;99.90
7516;DHT22;3799;47.184;8.538;2023-03-01T05:01:11;1.80;99.90
7516;DHT22;3799;47.184;8.538;2023-03-01T05:03:43;2.10;99.90
7516;DHT22;3799;47.184;8.538;2023-03-01T05:06:11;2.00;99.90
7516;DHT22;3799;47.184;8.538;2023-03-01T05:08:39;1.90;99.90
7516;DHT22;3799;47.184;8.538;2023-03-01T05:11:07;1.90;99.90
7516;DHT22;3799;47.184;8.538;2023-03-01T05:13:38;2.00;99.90
7516;DHT22;3799;47.184;8.538;2023-03-01T05:16:06;2.00;99.90
7516;DHT22;3799;47.184;8.538;2023-03-01T05:18:39;1.90;99.90
7516;DHT22;3799;47.184;8.538;2023-03-01T05:21:09;1.90;99.90
7516;DHT22;3799;47.184;8.538;2023-03-01T05:23:36;1.80;99.90
7516;DHT22;3799;47.184;8.538;2023-03-01T05:26:05;1.90;99.90
7516;DHT22;3799;47.184;8.538;2023-03-01T05:28:37;2.00;99.90
7516;DHT22;3799;47.184;8.538;2023-03-01T05:31:06;1.90;99.90
7516;DHT22;3799;47.184;8.538;2023-03-01T05:33:40;1.80;99.90
7516;DHT22;3799;47.184;8.538;2023-03-01T05:36:10;1.80;99.90
7516;DHT22;3799;47.184;8.538;2023-03-01T05:38:37;2.10;99.90
7516;DHT22;3799;47.184;8.538;2023-03-01T05:41:04;1.90;99.90
7516;DHT22;3799;47.184;8.538;2023-03-01T05:43:31;1.80;99.90
7516;DHT22;3799;47.184;8.538;2023-03-01T05:46:01;1.80;99.90
7516;DHT22;3799;47.184;8.538;2023-03-01T05:48:29;2.10;99.90
7516;DHT22;3799;47.184;8.538;2023-03-01T05:50:59;1.90;99.90
7516;DHT22;3799;47.184;8.538;2023-03-01T05:53:27;1.80;99.90
7516;DHT22;3799;47.184;8.538;2023-03-01T05:55:54;1.80;99.90
7516;DHT22;3799;47.184;8.538;2023-03-01T05:58:21;2.10;99.90
7516;DHT22;3799;47.184;8.538;2023-03-01T06:00:49;1.90;99.90
7516;DHT22;3799;47.184;8.538;2023-03-01T06:03:19;1.80;99.90
7516;DHT22;3799;47.184;8.538;2023-03-01T06:05:46;1.80;99.90
7516;DHT22;3799;47.184;8.538;2023-03-01T06:08:13;2.10;99.90
7516;DHT22;3799;47.184;8.538;2023-03-01T06:10:41;1.80;99.90
7516;DHT22;3799;47.184;8.538;2023-03-01T06:13:08;2.10;99.90
7516;DHT22;3799;47.184;8.538;2023-03-01T06:15:36;1.90;99.90
7516;DHT22;3799;47.184;8.538;2023-03-01T06:18:04;1.80;99.90
7516;DHT22;3799;47.184;8.538;2023-03-01T06:20:31;2.10;99.90
7516;DHT22;3799;47.184;8.538;2023-03-01T06:22:59;2.00;99.90
7516;DHT22;3799;47.184;8.538;2023-03-01T06:25:27;1.90;99.90
7516;DHT22;3799;47.184;8.538;2023-03-01T06:27:55;1.90;99.90
7516;DHT22;3799;47.184;8.538;2023-03-01T06:30:24;1.80;99.90
7516;DHT22;3799;47.184;8.538;2023-03-01T06:32:51;2.10;99.90
7516;DHT22;3799;47.184;8.538;2023-03-01T06:35:19;1.90;99.90
7516;DHT22;3799;47.184;8.538;2023-03-01T06:37:47;1.90;99.90
7516;DHT22;3799;47.184;8.538;2023-03-01T06:40:15;1.90;99.90
7516;DHT22;3799;47.184;8.538;2023-03-01T06:42:48;1.80;99.90
7516;DHT22;3799;47.184;8.538;2023-03-01T06:45:20;2.10;99.90
7516;DHT22;3799;47.184;8.538;2023-03-01T06:47:47;1.90;99.90
7516;DHT22;3799;47.184;8.538;2023-03-01T06:50:16;1.80;99.90
7516;DHT22;3799;47.184;8.538;2023-03-01T06:52:44;1.80;99.90
7516;DHT22;3799;47.184;8.538;2023-03-01T06:55:12;1.90;99.90
7516;DHT22;3799;47.184;8.538;2023-03-01T06:57:40;2.10;99.90
7516;DHT22;3799;47.184;8.538;2023-03-01T07:00:07;2.10;99.90
7516;DHT22;3799;47.184;8.538;2023-03-01T07:02:35;1.90;99.90
7516;DHT22;3799;47.184;8.538;2023-03-01T07:05:02;2.10;99.90
7516;DHT22;3799;47.184;8.538;2023-03-01T07:07:29;2.10;99.90
7516;DHT22;3799;47.184;8.538;2023-03-01T07:09:57;2.00;99.90
7516;DHT22;3799;47.184;8.538;2023-03-01T07:12:25;2.00;99.90
7516;DHT22;3799;47.184;8.538;2023-03-01T07:14:53;2.10;99.90
7516;DHT22;3799;47.184;8.538;2023-03-01T07:17:20;2.10;99.90
7516;DHT22;3799;47.184;8.538;2023-03-01T07:19:47;2.10;99.90
7516;DHT22;3799;47.184;8.538;2023-03-01T07:22:14;2.10;99.90
7516;DHT22;3799;47.184;8.538;2023-03-01T07:24:42;2.20;99.90
7516;DHT22;3799;47.184;8.538;2023-03-01T07:27:10;2.10;99.90
7516;DHT22;3799;47.184;8.538;2023-03-01T07:29:37;2.40;99.90
7516;DHT22;3799;47.184;8.538;2023-03-01T07:32:05;2.40;99.90
7516;DHT22;3799;47.184;8.538;2023-03-01T07:34:32;2.40;99.90
7516;DHT22;3799;47.184;8.538;2023-03-01T07:36:59;2.30;99.90
7516;DHT22;3799;47.184;8.538;2023-03-01T07:39:26;2.10;99.90
7516;DHT22;3799;47.184;8.538;2023-03-01T07:41:53;2.40;99.90
7516;DHT22;3799;47.184;8.538;2023-03-01T07:44:20;2.50;99.90
7516;DHT22;3799;47.184;8.538;2023-03-01T07:46:50;2.30;99.90
7516;DHT22;3799;47.184;8.538;2023-03-01T07:49:19;2.30;99.90
7516;DHT22;3799;47.184;8.538;2023-03-01T07:51:47;2.60;99.90
7516;DHT22;3799;47.184;8.538;2023-03-01T07:54:14;2.40;99.90
7516;DHT22;3799;47.184;8.538;2023-03-01T07:56:41;2.70;99.90
7516;DHT22;3799;47.184;8.538;2023-03-01T07:59:09;2.30;99.90
7516;DHT22;3799;47.184;8.538;2023-03-01T08:01:36;2.40;99.90
7516;DHT22;3799;47.184;8.538;2023-03-01T08:04:03;2.50;99.90
7516;DHT22;3799;47.184;8.538;2023-03-01T08:06:35;2.60;99.90
7516;DHT22;3799;47.184;8.538;2023-03-01T08:09:02;2.70;99.90
7516;DHT22;3799;47.184;8.538;2023-03-01T08:11:32;2.60;99.90
7516;DHT22;3799;47.184;8.538;2023-03-01T08:13:59;2.90;99.90
7516;DHT22;3799;47.184;8.538;2023-03-01T08:16:27;2.80;99.90
7516;DHT22;3799;47.184;8.538;2023-03-01T08:18:57;2.70;99.90
7516;DHT22;3799;47.184;8.538;2023-03-01T08:21:27;2.60;99.90
7516;DHT22;3799;47.184;8.538;2023-03-01T08:23:54;2.60;99.90
7516;DHT22;3799;47.184;8.538;2023-03-01T08:26:21;2.60;99.90
7516;DHT22;3799;47.184;8.538;2023-03-01T08:28:49;2.60;99.90
7516;DHT22;3799;47.184;8.538;2023-03-01T08:31:38;2.60;99.90
7516;DHT22;3799;47.184;8.538;2023-03-01T08:34:11;2.60;99.90
7516;DHT22;3799;47.184;8.538;2023-03-01T08:36:44;2.90;99.90
7516;DHT22;3799;47.184;8.538;2023-03-01T08:39:14;2.70;99.90
7516;DHT22;3799;47.184;8.538;2023-03-01T08:41:41;2.90;99.90
7516;DHT22;3799;47.184;8.538;2023-03-01T08:44:10;2.80;99.90
7516;DHT22;3799;47.184;8.538;2023-03-01T08:46:40;2.90;99.90
7516;DHT22;3799;47.184;8.538;2023-03-01T08:49:13;2.60;99.90
7516;DHT22;3799;47.184;8.538;2023-03-01T08:51:41;2.90;99.90
7516;DHT22;3799;47.184;8.538;2023-03-01T08:54:17;3.00;99.90
7516;DHT22;3799;47.184;8.538;2023-03-01T08:56:46;3.00;99.90
7516;DHT22;3799;47.184;8.538;2023-03-01T08:59:14;3.10;99.90
7516;DHT22;3799;47.184;8.538;2023-03-01T09:01:42;2.80;99.90
7516;DHT22;3799;47.184;8.538;2023-03-01T09:04:12;3.10;99.90
7516;DHT22;3799;47.184;8.538;2023-03-01T09:06:41;2.90;99.90
7516;DHT22;3799;47.184;8.538;2023-03-01T09:09:14;3.10;99.90
7516;DHT22;3799;47.184;8.538;2023-03-01T09:11:45;3.20;99.90
7516;DHT22;3799;47.184;8.538;2023-03-01T09:14:17;3.20;99.90
7516;DHT22;3799;47.184;8.538;2023-03-01T09:16:44;3.30;99.90
7516;DHT22;3799;47.184;8.538;2023-03-01T09:19:12;3.10;99.90
7516;DHT22;3799;47.184;8.538;2023-03-01T09:21:40;3.40;99.90
7516;DHT22;3799;47.184;8.538;2023-03-01T09:24:13;3.50;99.90
7516;DHT22;3799;47.184;8.538;2023-03-01T09:26:41;3.30;99.90
7516;DHT22;3799;47.184;8.538;2023-03-01T09:29:10;3.50;99.90
7516;DHT22;3799;47.184;8.538;2023-03-01T09:31:37;3.40;99.90
7516;DHT22;3799;47.184;8.538;2023-03-01T09:34:05;3.30;99.90
7516;DHT22;3799;47.184;8.538;2023-03-01T09:36:32;3.40;99.90
7516;DHT22;3799;47.184;8.538;2023-03-01T09:39:01;3.40;99.90
7516;DHT22;3799;47.184;8.538;2023-03-01T09:47:03;3.40;99.90
7516;DHT22;3799;47.184;8.538;2023-03-01T09:49:33;3.40;99.90
7516;DHT22;3799;47.184;8.538;2023-03-01T09:54:50;3.60;99.90
7516;DHT22;3799;47.184;8.538;2023-03-01T09:57:29;3.40;99.90
7516;DHT22;3799;47.184;8.538;2023-03-01T10:00:08;3.60;99.90
7516;DHT22;3799;47.184;8.538;2023-03-01T10:02:51;3.40;99.90
7516;DHT22;3799;47.184;8.538;2023-03-01T10:11:04;3.70;99.90
7516;DHT22;3799;47.184;8.538;2023-03-01T10:13:52;3.70;99.90
7516;DHT22;3799;47.184;8.538;2023-03-01T10:19:02;3.80;99.90
7516;DHT22;3799;47.184;8.538;2023-03-01T10:21:31;3.80;99.90
7516;DHT22;3799;47.184;8.538;2023-03-01T10:24:11;3.60;99.90
7516;DHT22;3799;47.184;8.538;2023-03-01T10:29:11;3.70;99.90
7516;DHT22;3799;47.184;8.538;2023-03-01T10:31:59;3.50;99.90
7516;DHT22;3799;47.184;8.538;2023-03-01T10:34:33;3.60;99.90
7516;DHT22;3799;47.184;8.538;2023-03-01T10:37:13;3.70;99.90
7516;DHT22;3799;47.184;8.538;2023-03-01T10:40:17;3.60;99.90
7516;DHT22;3799;47.184;8.538;2023-03-01T10:42:49;3.90;99.90
7516;DHT22;3799;47.184;8.538;2023-03-01T10:48:26;3.90;99.90
7516;DHT22;3799;47.184;8.538;2023-03-01T10:53:28;3.80;99.90
7516;DHT22;3799;47.184;8.538;2023-03-01T10:55:59;4.00;99.90
7516;DHT22;3799;47.184;8.538;2023-03-01T10:58:28;3.90;99.90
7516;DHT22;3799;47.184;8.538;2023-03-01T11:03:37;3.90;99.90
7516;DHT22;3799;47.184;8.538;2023-03-01T11:08:47;3.90;99.90
7516;DHT22;3799;47.184;8.538;2023-03-01T11:11:22;3.90;99.90
7516;DHT22;3799;47.184;8.538;2023-03-01T11:13:56;3.90;99.90
7516;DHT22;3799;47.184;8.538;2023-03-01T11:16:34;3.80;99.90
7516;DHT22;3799;47.184;8.538;2023-03-01T11:24:51;3.80;99.90
7516;DHT22;3799;47.184;8.538;2023-03-01T11:27:40;4.20;99.90
7516;DHT22;3799;47.184;8.538;2023-03-01T11:33:11;4.00;99.90
7516;DHT22;3799;47.184;8.538;2023-03-01T11:36:05;4.40;99.90
7516;DHT22;3799;47.184;8.538;2023-03-01T11:38:36;4.20;99.70
7516;DHT22;3799;47.184;8.538;2023-03-01T11:41:16;4.10;99.30
7516;DHT22;3799;47.184;8.538;2023-03-01T11:44:00;4.20;99.50
7516;DHT22;3799;47.184;8.538;2023-03-01T11:51:46;4.40;99.80
7516;DHT22;3799;47.184;8.538;2023-03-01T12:08:54;4.80;97.40
7516;DHT22;3799;47.184;8.538;2023-03-01T12:15:17;4.50;96.30
7516;DHT22;3799;47.184;8.538;2023-03-01T12:20:57;4.70;96.40
7516;DHT22;3799;47.184;8.538;2023-03-01T12:26:20;4.60;97.30
7516;DHT22;3799;47.184;8.538;2023-03-01T12:37:29;4.60;98.20
7516;DHT22;3799;47.184;8.538;2023-03-01T12:40:33;4.40;98.00
7516;DHT22;3799;47.184;8.538;2023-03-01T12:43:22;4.90;98.10
7516;DHT22;3799;47.184;8.538;2023-03-01T12:51:24;4.60;98.30
7516;DHT22;3799;47.184;8.538;2023-03-01T12:53:55;4.70;98.30
7516;DHT22;3799;47.184;8.538;2023-03-01T12:56:30;4.70;98.60
7516;DHT22;3799;47.184;8.538;2023-03-01T13:02:01;4.60;98.50
7516;DHT22;3799;47.184;8.538;2023-03-01T13:07:29;4.90;98.30
7516;DHT22;3799;47.184;8.538;2023-03-01T13:10:40;4.70;98.40
7516;DHT22;3799;47.184;8.538;2023-03-01T13:13:29;4.60;98.10
7516;DHT22;3799;47.184;8.538;2023-03-01T13:15:57;4.40;98.00
7516;DHT22;3799;47.184;8.538;2023-03-01T13:18:44;4.90;98.60
7516;DHT22;3799;47.184;8.538;2023-03-01T13:21:11;4.60;98.20
7516;DHT22;3799;47.184;8.538;2023-03-01T13:23:39;4.60;98.60
7516;DHT22;3799;47.184;8.538;2023-03-01T13:26:25;4.70;98.80
7516;DHT22;3799;47.184;8.538;2023-03-01T13:28:54;4.70;97.90
7516;DHT22;3799;47.184;8.538;2023-03-01T13:33:58;4.70;98.60
7516;DHT22;3799;47.184;8.538;2023-03-01T13:39:03;4.70;98.50
7516;DHT22;3799;47.184;8.538;2023-03-01T13:46:53;4.40;98.00
7516;DHT22;3799;47.184;8.538;2023-03-01T13:49:23;4.70;98.80
7516;DHT22;3799;47.184;8.538;2023-03-01T13:51:54;4.50;98.40
7516;DHT22;3799;47.184;8.538;2023-03-01T13:54:31;4.60;98.60
7516;DHT22;3799;47.184;8.538;2023-03-01T13:57:00;4.50;98.70
7516;DHT22;3799;47.184;8.538;2023-03-01T13:59:28;4.40;98.40
7516;DHT22;3799;47.184;8.538;2023-03-01T14:01:59;4.60;99.00
7516;DHT22;3799;47.184;8.538;2023-03-01T14:04:32;4.80;98.80
7516;DHT22;3799;47.184;8.538;2023-03-01T14:09:42;4.40;98.10
7516;DHT22;3799;47.184;8.538;2023-03-01T14:12:39;4.50;98.10
7516;DHT22;3799;47.184;8.538;2023-03-01T14:20:31;4.50;98.60
7516;DHT22;3799;47.184;8.538;2023-03-01T14:23:02;4.40;98.80
7516;DHT22;3799;47.184;8.538;2023-03-01T14:25:36;4.90;98.90
7516;DHT22;3799;47.184;8.538;2023-03-01T14:30:42;4.70;98.80
7516;DHT22;3799;47.184;8.538;2023-03-01T14:33:25;4.40;98.50
7516;DHT22;3799;47.184;8.538;2023-03-01T14:35:59;4.70;98.50
7516;DHT22;3799;47.184;8.538;2023-03-01T14:38:45;4.70;98.30
7516;DHT22;3799;47.184;8.538;2023-03-01T14:41:16;4.60;98.50
7516;DHT22;3799;47.184;8.538;2023-03-01T14:43:53;4.50;98.60
7516;DHT22;3799;47.184;8.538;2023-03-01T14:49:12;4.80;99.10
7516;DHT22;3799;47.184;8.538;2023-03-01T14:51:42;4.40;98.80
7516;DHT22;3799;47.184;8.538;2023-03-01T14:54:24;4.40;98.60
7516;DHT22;3799;47.184;8.538;2023-03-01T14:56:53;4.70;98.90
7516;DHT22;3799;47.184;8.538;2023-03-01T14:59:24;4.60;99.30
7516;DHT22;3799;47.184;8.538;2023-03-01T15:01:54;4.70;99.70
7516;DHT22;3799;47.184;8.538;2023-03-01T15:04:23;4.40;99.50
7516;DHT22;3799;47.184;8.538;2023-03-01T15:06:52;4.40;99.20
7516;DHT22;3799;47.184;8.538;2023-03-01T15:09:20;4.50;99.00
7516;DHT22;3799;47.184;8.538;2023-03-01T15:11:48;4.40;99.30
7516;DHT22;3799;47.184;8.538;2023-03-01T15:19:57;4.40;99.80
7516;DHT22;3799;47.184;8.538;2023-03-01T15:22:26;4.40;99.90
7516;DHT22;3799;47.184;8.538;2023-03-01T15:24:54;4.40;99.60
7516;DHT22;3799;47.184;8.538;2023-03-01T15:27:25;4.40;99.60
7516;DHT22;3799;47.184;8.538;2023-03-01T15:29:57;4.40;99.80
7516;DHT22;3799;47.184;8.538;2023-03-01T15:32:34;4.40;99.50
7516;DHT22;3799;47.184;8.538;2023-03-01T15:35:33;4.50;99.90
7516;DHT22;3799;47.184;8.538;2023-03-01T15:38:01;4.20;99.90
7516;DHT22;3799;47.184;8.538;2023-03-01T15:40:30;4.40;99.90
7516;DHT22;3799;47.184;8.538;2023-03-01T15:43:05;4.30;99.90
7516;DHT22;3799;47.184;8.538;2023-03-01T15:45:33;4.10;99.90
7516;DHT22;3799;47.184;8.538;2023-03-01T15:48:03;4.20;99.90
7516;DHT22;3799;47.184;8.538;2023-03-01T15:50:32;4.20;99.90
7516;DHT22;3799;47.184;8.538;2023-03-01T15:53:09;4.30;99.90
7516;DHT22;3799;47.184;8.538;2023-03-01T15:55:38;4.20;99.90
7516;DHT22;3799;47.184;8.538;2023-03-01T15:58:10;4.00;99.90
7516;DHT22;3799;47.184;8.538;2023-03-01T16:00:39;4.20;99.90
7516;DHT22;3799;47.184;8.538;2023-03-01T16:03:24;4.00;99.90
7516;DHT22;3799;47.184;8.538;2023-03-01T16:05:51;4.20;99.90
7516;DHT22;3799;47.184;8.538;2023-03-01T16:08:18;4.10;99.90
7516;DHT22;3799;47.184;8.538;2023-03-01T16:10:46;3.80;99.90
7516;DHT22;3799;47.184;8.538;2023-03-01T16:13:15;3.90;99.90
7516;DHT22;3799;47.184;8.538;2023-03-01T16:15:42;4.20;99.90
7516;DHT22;3799;47.184;8.538;2023-03-01T16:18:10;3.90;99.90
7516;DHT22;3799;47.184;8.538;2023-03-01T16:20:39;4.00;99.90
7516;DHT22;3799;47.184;8.538;2023-03-01T16:23:08;3.90;99.90
7516;DHT22;3799;47.184;8.538;2023-03-01T16:25:37;4.10;99.90
7516;DHT22;3799;47.184;8.538;2023-03-01T16:28:05;3.80;99.90
7516;DHT22;3799;47.184;8.538;2023-03-01T16:30:39;3.80;99.90
7516;DHT22;3799;47.184;8.538;2023-03-01T16:33:08;3.90;99.90
7516;DHT22;3799;47.184;8.538;2023-03-01T16:35:56;3.80;99.90
7516;DHT22;3799;47.184;8.538;2023-03-01T16:38:25;3.90;99.90
7516;DHT22;3799;47.184;8.538;2023-03-01T16:40:53;4.00;99.90
7516;DHT22;3799;47.184;8.538;2023-03-01T16:43:20;3.80;99.90
7516;DHT22;3799;47.184;8.538;2023-03-01T16:45:59;3.80;99.90
7516;DHT22;3799;47.184;8.538;2023-03-01T16:48:26;4.00;99.90
7516;DHT22;3799;47.184;8.538;2023-03-01T16:51:01;4.00;99.90
7516;DHT22;3799;47.184;8.538;2023-03-01T16:53:29;3.70;99.90
7516;DHT22;3799;47.184;8.538;2023-03-01T16:55:57;3.70;99.90
7516;DHT22;3799;47.184;8.538;2023-03-01T16:58:25;3.50;99.90
7516;DHT22;3799;47.184;8.538;2023-03-01T17:00:53;3.70;99.90
7516;DHT22;3799;47.184;8.538;2023-03-01T17:03:24;3.60;99.90
7516;DHT22;3799;47.184;8.538;2023-03-01T17:05:54;3.70;99.90
7516;DHT22;3799;47.184;8.538;2023-03-01T17:08:21;3.60;99.90
7516;DHT22;3799;47.184;8.538;2023-03-01T17:10:49;3.60;99.90
7516;DHT22;3799;47.184;8.538;2023-03-01T17:13:16;3.30;99.90
7516;DHT22;3799;47.184;8.538;2023-03-01T17:15:44;3.30;99.90
7516;DHT22;3799;47.184;8.538;2023-03-01T17:18:11;3.40;99.90
7516;DHT22;3799;47.184;8.538;2023-03-01T17:20:38;3.10;99.90
7516;DHT22;3799;47.184;8.538;2023-03-01T17:23:05;3.40;99.90
7516;DHT22;3799;47.184;8.538;2023-03-01T17:25:32;3.30;99.90
7516;DHT22;3799;47.184;8.538;2023-03-01T17:27:59;3.10;99.90
7516;DHT22;3799;47.184;8.538;2023-03-01T17:30:27;3.40;99.90
7516;DHT22;3799;47.184;8.538;2023-03-01T17:32:54;3.40;99.90
7516;DHT22;3799;47.184;8.538;2023-03-01T17:35:22;3.50;99.90
7516;DHT22;3799;47.184;8.538;2023-03-01T17:37:50;3.40;99.90
7516;DHT22;3799;47.184;8.538;2023-03-01T17:40:20;3.50;99.90
7516;DHT22;3799;47.184;8.538;2023-03-01T17:42:47;3.40;99.90
7516;DHT22;3799;47.184;8.538;2023-03-01T17:45:14;3.30;99.90
7516;DHT22;3799;47.184;8.538;2023-03-01T17:47:42;3.20;99.90
7516;DHT22;3799;47.184;8.538;2023-03-01T17:50:09;3.30;99.90
7516;DHT22;3799;47.184;8.538;2023-03-01T17:52:38;3.50;99.90
7516;DHT22;3799;47.184;8.538;2023-03-01T17:55:09;3.30;99.90
7516;DHT22;3799;47.184;8.538;2023-03-01T17:57:40;3.20;99.90
7516;DHT22;3799;47.184;8.538;2023-03-01T18:00:12;3.50;99.90
7516;DHT22;3799;47.184;8.538;2023-03-01T18:02:41;3.30;99.90
7516;DHT22;3799;47.184;8.538;2023-03-01T18:05:21;3.50;99.90
7516;DHT22;3799;47.184;8.538;2023-03-01T18:07:50;3.40;99.90
7516;DHT22;3799;47.184;8.538;2023-03-01T18:10:18;3.40;99.90
7516;DHT22;3799;47.184;8.538;2023-03-01T18:12:46;3.30;99.90
7516;DHT22;3799;47.184;8.538;2023-03-01T18:15:13;3.20;99.90
7516;DHT22;3799;47.184;8.538;2023-03-01T18:17:40;2.90;99.90
7516;DHT22;3799;47.184;8.538;2023-03-01T18:20:09;3.30;99.90
7516;DHT22;3799;47.184;8.538;2023-03-01T18:22:37;3.00;99.90
7516;DHT22;3799;47.184;8.538;2023-03-01T18:25:04;3.10;99.90
7516;DHT22;3799;47.184;8.538;2023-03-01T18:27:34;3.10;99.90
7516;DHT22;3799;47.184;8.538;2023-03-01T18:30:05;3.20;99.90
7516;DHT22;3799;47.184;8.538;2023-03-01T18:32:33;3.40;99.90
7516;DHT22;3799;47.184;8.538;2023-03-01T18:35:01;3.30;99.90
7516;DHT22;3799;47.184;8.538;2023-03-01T18:37:28;3.20;99.90
7516;DHT22;3799;47.184;8.538;2023-03-01T18:39:55;3.40;99.90
7516;DHT22;3799;47.184;8.538;2023-03-01T18:42:23;3.30;99.90
7516;DHT22;3799;47.184;8.538;2023-03-01T18:44:50;3.30;99.90
7516;DHT22;3799;47.184;8.538;2023-03-01T18:47:19;3.20;99.90
7516;DHT22;3799;47.184;8.538;2023-03-01T18:49:49;3.40;99.90